Tropical Cyclones
[Index]
Main Index Home Page Stock Weather Photos Extreme Storms Discussion Storm News and Storm Chasing Reports Tropical Cyclones / Hurricanes / Typhoons Weather Data and Links Wild Fires / Bushfires Weather Observation Techniques Weather Picture Catalogue Tornado Pictures and Reports Stock Video Footage and DVDs for sale
Season 2002-2003 Tropical Cyclone ERICA Track Map
Season 2002-2003 Summaries: [BoM-AU] [JTWC-AU] [JTWC-SIO] [JTWC-SPAC] [JTWC-SH]
<<- Previous TC | BoM 2002-2003 Season | Next TC ->>

click for intensity scale information  Lat/long Grid: Show Hide

 Date Labels: Show Hide

Bureau of Meteorology Tropical Cyclone Data

Name: ERICA
Number: 865 / 200203_05

01 Mar 2003 12:00 UTC to 12 Mar 2003 06:00 UTC

    date/time    lat    long    hPa   cat  kts
2003-03-01 12   21.0   147.5    999         30          
2003-03-01 18   20.5   149.0    998         30          
2003-03-02 00   20.3   149.4   1001         30          
2003-03-02 06   20.0   149.8   1000         30          
2003-03-02 12   20.0   150.0   1002         30          
2003-03-02 18   19.7   149.7   1001         30          
2003-03-03 00   19.5   149.5   1003         30          
2003-03-03 06   19.7   151.0   1001         35          
2003-03-03 12   20.3   151.5   1000         40          
2003-03-03 18   20.3   152.2    998         45          
2003-03-04 00   20.5   153.0    997         45          
2003-03-04 06   20.5   154.0    995    1    45          
2003-03-04 12   20.6   154.4    990    1    50          
2003-03-04 18   20.5   154.6    985    2    55          
2003-03-05 00   20.1   154.9    985    2    50          
2003-03-05 06   19.4   155.1    985    2    50          
2003-03-05 12   18.7   155.1    988    1    45          
2003-03-05 18   18.0   155.1    990    1    40          
2003-03-06 00   17.5   154.5    990    1    40          
2003-03-06 06   16.8   154.0    990    1    40          
2003-03-06 12   16.0   154.0    992    1    40          
2003-03-06 18   15.5   153.9    995    1    35          
2003-03-07 00   15.1   153.9    998         30          
2003-03-07 06   14.5   153.7    998         25          
2003-03-07 12   13.8   153.5    998         25          
2003-03-07 18   12.8   154.2    997         25          
2003-03-08 00   12.7   154.0    998         25          
2003-03-08 06   12.5   154.4    998         25          
2003-03-08 12   12.5   154.6    999         30          
2003-03-08 18   12.2   154.8    999         30          
2003-03-09 00   12.2   154.9    999         30          
2003-03-09 06   12.4   155.3    999         30          
2003-03-09 12   12.3   155.9   1000         30          
2003-03-09 18   12.2   156.8   1000         25          
2003-03-10 00   12.0   157.5   1000         35          
2003-03-10 06   12.1   157.9    995    1    40          
2003-03-10 12   12.3   158.2    993    1    45          
2003-03-10 18   12.7   158.3    990    1    50          
2003-03-11 00   13.1   158.4    985    2    55          
2003-03-11 06   13.6   158.8    980    2    60          
2003-03-11 12   14.4   159.4    975    2    60          
2003-03-11 18   15.2   159.8    970    3    65          
2003-03-12 00   16.4   159.7    965    3    70          
2003-03-12 06   16.9   160.0    960    3    80          
Winds are 10-min average.

Tropical cyclone tracks developed by Michael Bath using data from the Bureau of Meteorology and Google Maps.


[Australian Severe Weather index] [Copyright Notice] [Email Contacts] [Search This Site] [Privacy Policy]
Document: tropical_cyclone_erica.htm Updated: 29 June 2017